sensor_id;sensor_type;location;lat;lon;timestamp;temperature;humidity
19003;DHT22;9634;51.040;13.794;2022-10-16T01:56:41;15.60;99.90
19003;DHT22;9634;51.040;13.794;2022-10-16T02:01:47;15.50;99.90
19003;DHT22;9634;51.040;13.794;2022-10-16T02:06:51;15.50;99.90
19003;DHT22;9634;51.040;13.794;2022-10-16T02:11:57;15.50;99.90
19003;DHT22;9634;51.040;13.794;2022-10-16T02:17:11;15.50;99.90
19003;DHT22;9634;51.040;13.794;2022-10-16T02:22:17;15.40;99.90
19003;DHT22;9634;51.040;13.794;2022-10-16T02:27:25;15.50;99.90
19003;DHT22;9634;51.040;13.794;2022-10-16T02:32:31;15.60;99.90
19003;DHT22;9634;51.040;13.794;2022-10-16T05:39:18;15.30;99.90
19003;DHT22;9634;51.040;13.794;2022-10-16T05:44:20;15.20;99.90
19003;DHT22;9634;51.040;13.794;2022-10-16T05:49:23;15.30;99.90
19003;DHT22;9634;51.040;13.794;2022-10-16T05:54:26;15.30;99.90
19003;DHT22;9634;51.040;13.794;2022-10-16T05:59:28;15.30;99.90
19003;DHT22;9634;51.040;13.794;2022-10-16T06:04:30;15.30;99.90
19003;DHT22;9634;51.040;13.794;2022-10-16T06:09:34;15.50;99.90
19003;DHT22;9634;51.040;13.794;2022-10-16T06:14:36;15.70;99.90
19003;DHT22;9634;51.040;13.794;2022-10-16T06:19:38;15.80;99.90
19003;DHT22;9634;51.040;13.794;2022-10-16T06:24:42;15.90;99.90
19003;DHT22;9634;51.040;13.794;2022-10-16T06:29:45;16.10;99.90
19003;DHT22;9634;51.040;13.794;2022-10-16T06:34:47;16.40;99.90
19003;DHT22;9634;51.040;13.794;2022-10-16T06:39:51;16.60;99.90
19003;DHT22;9634;51.040;13.794;2022-10-16T06:44:54;16.70;99.90
19003;DHT22;9634;51.040;13.794;2022-10-16T06:49:59;16.90;99.90
19003;DHT22;9634;51.040;13.794;2022-10-16T06:55:03;17.10;99.90
19003;DHT22;9634;51.040;13.794;2022-10-16T07:00:07;17.50;99.90
19003;DHT22;9634;51.040;13.794;2022-10-16T07:05:09;17.80;99.90
19003;DHT22;9634;51.040;13.794;2022-10-16T07:10:13;17.90;99.90
19003;DHT22;9634;51.040;13.794;2022-10-16T07:15:15;17.80;99.90
19003;DHT22;9634;51.040;13.794;2022-10-16T07:20:17;17.80;99.90
19003;DHT22;9634;51.040;13.794;2022-10-16T07:25:21;17.80;99.90
19003;DHT22;9634;51.040;13.794;2022-10-16T07:30:23;18.00;99.90
19003;DHT22;9634;51.040;13.794;2022-10-16T07:35:25;18.20;99.90
19003;DHT22;9634;51.040;13.794;2022-10-16T07:40:29;18.20;99.90
19003;DHT22;9634;51.040;13.794;2022-10-16T07:45:31;18.20;99.90
19003;DHT22;9634;51.040;13.794;2022-10-16T07:50:34;18.20;99.90
19003;DHT22;9634;51.040;13.794;2022-10-16T07:55:37;18.30;99.90
19003;DHT22;9634;51.040;13.794;2022-10-16T08:00:39;18.50;99.90
19003;DHT22;9634;51.040;13.794;2022-10-16T08:05:42;18.80;99.90
19003;DHT22;9634;51.040;13.794;2022-10-16T08:10:45;19.10;99.90
19003;DHT22;9634;51.040;13.794;2022-10-16T08:15:48;19.40;99.90
19003;DHT22;9634;51.040;13.794;2022-10-16T08:20:55;19.90;99.90
19003;DHT22;9634;51.040;13.794;2022-10-16T08:26:04;20.10;99.90
19003;DHT22;9634;51.040;13.794;2022-10-16T08:31:08;20.10;99.90
19003;DHT22;9634;51.040;13.794;2022-10-16T08:36:11;20.40;99.90
19003;DHT22;9634;51.040;13.794;2022-10-16T08:47:13;21.50;99.90
19003;DHT22;9634;51.040;13.794;2022-10-16T08:52:18;21.60;99.90
19003;DHT22;9634;51.040;13.794;2022-10-16T08:57:22;21.80;99.90
19003;DHT22;9634;51.040;13.794;2022-10-16T09:02:32;22.10;99.90
19003;DHT22;9634;51.040;13.794;2022-10-16T09:07:39;25.70;99.90
19003;DHT22;9634;51.040;13.794;2022-10-16T09:12:52;25.80;99.90
19003;DHT22;9634;51.040;13.794;2022-10-16T09:18:01;25.50;99.90
19003;DHT22;9634;51.040;13.794;2022-10-16T09:23:17;24.50;99.90
19003;DHT22;9634;51.040;13.794;2022-10-16T09:28:20;26.40;99.90
19003;DHT22;9634;51.040;13.794;2022-10-16T09:33:29;29.40;77.30
19003;DHT22;9634;51.040;13.794;2022-10-16T09:38:33;27.90;86.80
19003;DHT22;9634;51.040;13.794;2022-10-16T09:43:40;26.20;98.60
19003;DHT22;9634;51.040;13.794;2022-10-16T09:48:47;25.40;99.90
19003;DHT22;9634;51.040;13.794;2022-10-16T09:53:55;25.80;99.90
19003;DHT22;9634;51.040;13.794;2022-10-16T09:59:00;25.90;99.90
19003;DHT22;9634;51.040;13.794;2022-10-16T10:04:05;25.80;99.90
19003;DHT22;9634;51.040;13.794;2022-10-16T10:09:17;26.60;99.90
19003;DHT22;9634;51.040;13.794;2022-10-16T10:14:32;28.20;92.50
19003;DHT22;9634;51.040;13.794;2022-10-16T10:19:44;28.00;89.50
19003;DHT22;9634;51.040;13.794;2022-10-16T10:24:55;27.30;93.60
19003;DHT22;9634;51.040;13.794;2022-10-16T10:30:02;27.50;90.00
19003;DHT22;9634;51.040;13.794;2022-10-16T10:35:15;27.80;82.00
19003;DHT22;9634;51.040;13.794;2022-10-16T10:40:30;28.30;80.30
19003;DHT22;9634;51.040;13.794;2022-10-16T10:45:40;28.40;78.80
19003;DHT22;9634;51.040;13.794;2022-10-16T10:50:50;27.80;84.90
19003;DHT22;9634;51.040;13.794;2022-10-16T10:56:00;29.30;73.70
19003;DHT22;9634;51.040;13.794;2022-10-16T11:01:12;29.50;68.40
19003;DHT22;9634;51.040;13.794;2022-10-16T11:06:19;28.10;68.70
19003;DHT22;9634;51.040;13.794;2022-10-16T11:11:30;27.00;78.70
19003;DHT22;9634;51.040;13.794;2022-10-16T11:16:37;26.90;82.00
19003;DHT22;9634;51.040;13.794;2022-10-16T11:21:46;25.80;90.70
19003;DHT22;9634;51.040;13.794;2022-10-16T11:26:52;25.90;91.70
19003;DHT22;9634;51.040;13.794;2022-10-16T11:31:59;25.70;91.50
19003;DHT22;9634;51.040;13.794;2022-10-16T11:37:08;27.80;75.10
19003;DHT22;9634;51.040;13.794;2022-10-16T11:42:18;27.70;62.70
19003;DHT22;9634;51.040;13.794;2022-10-16T11:47:27;27.00;75.70
19003;DHT22;9634;51.040;13.794;2022-10-16T11:52:38;26.80;74.30
19003;DHT22;9634;51.040;13.794;2022-10-16T11:57:46;27.00;77.50
19003;DHT22;9634;51.040;13.794;2022-10-16T12:03:00;28.40;66.80
19003;DHT22;9634;51.040;13.794;2022-10-16T12:08:10;30.70;49.50
19003;DHT22;9634;51.040;13.794;2022-10-16T12:13:32;28.30;55.70
19003;DHT22;9634;51.040;13.794;2022-10-16T12:18:35;26.30;71.00
19003;DHT22;9634;51.040;13.794;2022-10-16T12:23:47;27.60;65.00
19003;DHT22;9634;51.040;13.794;2022-10-16T12:28:50;30.20;50.10
19003;DHT22;9634;51.040;13.794;2022-10-16T12:33:57;30.20;47.70
19003;DHT22;9634;51.040;13.794;2022-10-16T12:39:02;29.50;50.20
19003;DHT22;9634;51.040;13.794;2022-10-16T12:44:04;28.60;54.80
19003;DHT22;9634;51.040;13.794;2022-10-16T12:49:23;27.30;60.90
19003;DHT22;9634;51.040;13.794;2022-10-16T12:54:36;27.10;65.20
19003;DHT22;9634;51.040;13.794;2022-10-16T12:59:43;27.40;66.00
19003;DHT22;9634;51.040;13.794;2022-10-16T13:05:09;27.60;63.10
19003;DHT22;9634;51.040;13.794;2022-10-16T13:10:25;29.70;52.80
19003;DHT22;9634;51.040;13.794;2022-10-16T13:15:42;29.70;49.60
19003;DHT22;9634;51.040;13.794;2022-10-16T13:21:02;26.50;63.80
19003;DHT22;9634;51.040;13.794;2022-10-16T13:26:17;25.50;84.80
19003;DHT22;9634;51.040;13.794;2022-10-16T13:31:29;25.20;93.20
19003;DHT22;9634;51.040;13.794;2022-10-16T13:36:42;25.60;91.80
19003;DHT22;9634;51.040;13.794;2022-10-16T16:43:28;18.00;35.90
19003;DHT22;9634;51.040;13.794;2022-10-16T16:48:32;17.90;99.90
19003;DHT22;9634;51.040;13.794;2022-10-16T16:53:34;17.60;99.90
19003;DHT22;9634;51.040;13.794;2022-10-16T16:58:38;17.30;99.90
19003;DHT22;9634;51.040;13.794;2022-10-16T17:03:42;17.10;99.90
19003;DHT22;9634;51.040;13.794;2022-10-16T17:08:46;16.90;99.90
19003;DHT22;9634;51.040;13.794;2022-10-16T17:13:51;16.90;99.90
19003;DHT22;9634;51.040;13.794;2022-10-16T17:18:54;16.80;99.90
19003;DHT22;9634;51.040;13.794;2022-10-16T17:24:00;16.80;99.90
19003;DHT22;9634;51.040;13.794;2022-10-16T17:29:04;16.60;99.90
19003;DHT22;9634;51.040;13.794;2022-10-16T17:34:07;16.50;99.90
19003;DHT22;9634;51.040;13.794;2022-10-16T17:39:12;16.30;99.90
19003;DHT22;9634;51.040;13.794;2022-10-16T17:44:16;16.30;99.90
19003;DHT22;9634;51.040;13.794;2022-10-16T17:49:22;16.30;99.90
19003;DHT22;9634;51.040;13.794;2022-10-16T17:54:24;16.30;99.90
19003;DHT22;9634;51.040;13.794;2022-10-16T17:59:28;16.30;99.90
19003;DHT22;9634;51.040;13.794;2022-10-16T18:04:30;16.10;99.90
19003;DHT22;9634;51.040;13.794;2022-10-16T18:09:32;16.10;99.90
19003;DHT22;9634;51.040;13.794;2022-10-16T18:14:36;16.20;99.90
19003;DHT22;9634;51.040;13.794;2022-10-16T18:19:38;16.20;99.90
19003;DHT22;9634;51.040;13.794;2022-10-16T18:24:40;16.20;99.90
19003;DHT22;9634;51.040;13.794;2022-10-16T18:29:44;16.20;99.90
19003;DHT22;9634;51.040;13.794;2022-10-16T18:34:46;16.10;99.90
19003;DHT22;9634;51.040;13.794;2022-10-16T18:39:49;16.00;99.90
19003;DHT22;9634;51.040;13.794;2022-10-16T18:44:52;15.90;99.90
19003;DHT22;9634;51.040;13.794;2022-10-16T18:49:54;15.80;99.90
19003;DHT22;9634;51.040;13.794;2022-10-16T18:54:57;15.70;99.90
19003;DHT22;9634;51.040;13.794;2022-10-16T19:00:00;15.60;99.90
19003;DHT22;9634;51.040;13.794;2022-10-16T19:05:03;15.50;99.90
19003;DHT22;9634;51.040;13.794;2022-10-16T19:10:05;15.50;99.90
19003;DHT22;9634;51.040;13.794;2022-10-16T19:15:10;15.50;99.90
19003;DHT22;9634;51.040;13.794;2022-10-16T19:20:12;15.70;99.90
19003;DHT22;9634;51.040;13.794;2022-10-16T19:25:14;15.70;99.90
19003;DHT22;9634;51.040;13.794;2022-10-16T19:30:19;15.80;99.90
19003;DHT22;9634;51.040;13.794;2022-10-16T19:35:22;15.80;99.90
19003;DHT22;9634;51.040;13.794;2022-10-16T19:40:26;15.70;99.90
19003;DHT22;9634;51.040;13.794;2022-10-16T22:46:45;14.00;99.90
19003;DHT22;9634;51.040;13.794;2022-10-16T22:51:47;14.10;99.90
19003;DHT22;9634;51.040;13.794;2022-10-16T22:56:49;13.90;99.90
19003;DHT22;9634;51.040;13.794;2022-10-16T23:01:53;13.80;99.90
19003;DHT22;9634;51.040;13.794;2022-10-16T23:06:55;13.80;99.90
19003;DHT22;9634;51.040;13.794;2022-10-16T23:11:58;13.80;99.90
19003;DHT22;9634;51.040;13.794;2022-10-16T23:17:02;13.70;99.90
19003;DHT22;9634;51.040;13.794;2022-10-16T23:22:04;13.90;99.90
19003;DHT22;9634;51.040;13.794;2022-10-16T23:27:06;13.90;99.90
19003;DHT22;9634;51.040;13.794;2022-10-16T23:32:10;14.00;99.90
19003;DHT22;9634;51.040;13.794;2022-10-16T23:37:12;13.80;99.90
19003;DHT22;9634;51.040;13.794;2022-10-16T23:42:15;13.80;99.90
19003;DHT22;9634;51.040;13.794;2022-10-16T23:47:18;13.90;99.90
19003;DHT22;9634;51.040;13.794;2022-10-16T23:52:20;13.70;99.90
19003;DHT22;9634;51.040;13.794;2022-10-16T23:57:23;13.70;99.90
